createdAt,value
2017-10-19T00:02:20.571Z,18.43
2017-10-19T00:04:48.206Z,16.13
2017-10-19T00:07:15.786Z,16.47
2017-10-19T00:09:43.383Z,17.03
2017-10-19T00:12:10.968Z,15.80
2017-10-19T00:14:38.582Z,16.63
2017-10-19T00:17:06.167Z,16.47
2017-10-19T00:19:34.176Z,15.60
2017-10-19T00:22:01.761Z,15.83
2017-10-19T00:24:29.339Z,16.70
2017-10-19T00:26:56.960Z,16.40
2017-10-19T00:29:24.520Z,17.90
2017-10-19T00:31:52.292Z,16.17
2017-10-19T00:34:19.866Z,15.93
2017-10-19T00:36:47.461Z,16.27
2017-10-19T00:39:15.077Z,13.63
2017-10-19T00:41:43.355Z,15.90
2017-10-19T00:44:10.909Z,13.80
2017-10-19T00:46:38.476Z,12.27
2017-10-19T00:49:06.075Z,13.93
2017-10-19T00:51:33.654Z,15.00
2017-10-19T00:54:01.251Z,14.80
2017-10-19T00:56:28.870Z,14.40
2017-10-19T00:58:56.736Z,15.13
2017-10-19T01:01:24.284Z,13.57
2017-10-19T01:03:51.865Z,13.90
2017-10-19T01:06:19.871Z,14.80
2017-10-19T01:08:47.437Z,13.97
2017-10-19T01:11:15.027Z,13.87
2017-10-19T01:13:42.626Z,13.80
2017-10-19T01:16:10.235Z,15.03
2017-10-19T01:18:37.808Z,13.87
2017-10-19T01:21:05.657Z,15.60
2017-10-19T01:23:33.238Z,13.80
2017-10-19T01:26:00.794Z,14.50
2017-10-19T01:28:28.425Z,14.13
2017-10-19T01:30:55.998Z,14.37
2017-10-19T01:33:23.571Z,15.07
2017-10-19T01:35:51.138Z,14.70
2017-10-19T01:38:18.964Z,14.53
2017-10-19T01:40:46.543Z,16.50
2017-10-19T01:43:14.096Z,16.37
2017-10-19T01:45:41.794Z,14.93
2017-10-19T01:48:09.355Z,15.00
2017-10-19T01:50:36.947Z,15.80
2017-10-19T01:53:04.527Z,16.13
2017-10-19T01:55:32.121Z,16.30
2017-10-19T01:57:59.672Z,15.90
2017-10-19T02:00:27.592Z,16.67
2017-10-19T02:02:55.165Z,13.67
2017-10-19T02:05:22.745Z,15.50
2017-10-19T02:07:50.333Z,13.63
2017-10-19T02:10:17.938Z,15.07
2017-10-19T02:12:45.541Z,13.33
2017-10-19T02:15:13.086Z,14.00
2017-10-19T02:17:40.842Z,14.20
2017-10-19T02:20:08.413Z,14.20
2017-10-19T02:22:37.619Z,14.30
2017-10-19T02:25:05.174Z,12.90
2017-10-19T02:27:32.725Z,11.73
2017-10-19T02:30:00.305Z,11.53
2017-10-19T02:32:27.889Z,11.00
2017-10-19T02:34:55.544Z,12.07
2017-10-19T02:37:23.128Z,12.50
2017-10-19T02:39:50.729Z,13.10
2017-10-19T02:42:18.316Z,13.00
2017-10-19T02:44:46.547Z,13.10
2017-10-19T02:47:14.110Z,12.80
2017-10-19T02:49:41.689Z,13.50
2017-10-19T02:52:09.284Z,11.83
2017-10-19T02:54:36.846Z,11.50
2017-10-19T02:57:04.407Z,11.90
2017-10-19T02:59:32.005Z,10.97
2017-10-19T03:02:00.932Z,10.40
2017-10-19T03:04:29.198Z,10.57
2017-10-19T03:06:59.373Z,10.30
2017-10-19T03:09:26.957Z,9.20
2017-10-19T03:11:54.839Z,10.00
2017-10-19T03:14:22.409Z,10.07
2017-10-19T03:16:49.983Z,10.30
2017-10-19T03:19:17.588Z,10.90
2017-10-19T03:21:45.155Z,10.43
2017-10-19T03:24:12.728Z,11.30
2017-10-19T03:26:40.301Z,12.00
2017-10-19T03:29:08.283Z,11.30
2017-10-19T03:31:35.857Z,11.40
2017-10-19T03:34:03.433Z,10.87
2017-10-19T03:36:31.038Z,11.87
2017-10-19T03:38:58.609Z,10.17
2017-10-19T03:41:26.202Z,11.33
2017-10-19T03:43:53.764Z,11.00
2017-10-19T03:46:21.353Z,11.03
2017-10-19T03:48:48.940Z,11.07
2017-10-19T03:51:16.569Z,12.03
2017-10-19T03:53:44.139Z,10.37
2017-10-19T03:56:13.392Z,11.43
2017-10-19T03:58:40.976Z,11.00
2017-10-19T04:01:08.538Z,10.23
2017-10-19T04:03:36.121Z,11.20
2017-10-19T04:06:03.832Z,11.03
2017-10-19T04:08:31.426Z,10.50
2017-10-19T04:10:58.984Z,10.40
2017-10-19T04:13:26.580Z,10.27
2017-10-19T04:15:54.166Z,10.53
2017-10-19T04:18:22.129Z,9.53
2017-10-19T04:20:49.713Z,10.00
2017-10-19T04:23:17.253Z,8.90
2017-10-19T04:25:44.876Z,8.40
2017-10-19T04:28:12.440Z,9.10
2017-10-19T04:30:40.037Z,9.30
2017-10-19T04:33:07.631Z,9.97
2017-10-19T04:35:35.535Z,9.47
2017-10-19T04:38:03.172Z,9.13
2017-10-19T04:40:31.120Z,8.70
2017-10-19T04:42:58.695Z,9.10
2017-10-19T04:45:26.282Z,9.00
2017-10-19T04:47:53.876Z,9.40
2017-10-19T04:50:21.448Z,9.80
2017-10-19T04:52:49.033Z,8.93
2017-10-19T04:55:16.562Z,9.10
2017-10-19T04:57:44.159Z,9.53
2017-10-19T05:00:11.775Z,10.27
2017-10-19T05:02:39.339Z,9.67
2017-10-19T05:05:06.921Z,9.67
2017-10-19T05:07:34.530Z,9.70
2017-10-19T05:10:02.265Z,10.03
2017-10-19T05:12:29.822Z,9.30
2017-10-19T05:15:01.422Z,10.10
2017-10-19T05:17:28.979Z,8.30
2017-10-19T05:19:56.551Z,9.50
2017-10-19T05:22:24.275Z,9.80
2017-10-19T05:24:51.823Z,9.70
2017-10-19T05:27:19.436Z,10.10
2017-10-19T05:29:47.896Z,10.13
2017-10-19T05:32:15.504Z,10.03
2017-10-19T05:34:43.075Z,10.87
2017-10-19T05:37:10.681Z,10.27
2017-10-19T05:39:38.275Z,11.00
2017-10-19T05:42:05.931Z,11.57
2017-10-19T05:44:33.516Z,10.20
2017-10-19T05:47:01.104Z,11.40
2017-10-19T05:49:28.827Z,11.00
2017-10-19T05:51:56.405Z,12.03
2017-10-19T05:54:28.993Z,12.07
2017-10-19T05:56:56.550Z,12.90
2017-10-19T05:59:24.486Z,13.17
2017-10-19T06:01:52.078Z,10.50
2017-10-19T06:04:19.685Z,7.40
2017-10-19T06:06:47.365Z,8.20
2017-10-19T06:09:14.937Z,7.27
2017-10-19T06:11:42.526Z,7.80
2017-10-19T06:14:10.091Z,8.67
2017-10-19T06:16:37.761Z,8.60
2017-10-19T06:19:06.552Z,7.97
2017-10-19T06:21:34.519Z,8.83
2017-10-19T06:24:02.087Z,9.60
2017-10-19T06:26:29.647Z,9.83
2017-10-19T06:28:57.231Z,10.80
2017-10-19T06:31:24.779Z,10.90
2017-10-19T06:33:52.368Z,12.47
2017-10-19T06:36:19.969Z,11.00
2017-10-19T06:38:47.913Z,10.30
2017-10-19T06:41:15.502Z,9.50
2017-10-19T06:43:43.094Z,9.90
2017-10-19T06:46:10.888Z,10.00
2017-10-19T06:48:38.497Z,9.53
2017-10-19T06:51:06.094Z,8.23
2017-10-19T06:53:33.642Z,9.20
2017-10-19T06:56:01.244Z,9.10
2017-10-19T06:58:28.820Z,9.30
2017-10-19T07:00:56.398Z,8.77
2017-10-19T07:03:23.992Z,8.47
2017-10-19T07:05:51.562Z,8.10
2017-10-19T07:08:20.201Z,8.80
2017-10-19T07:10:47.798Z,9.07
2017-10-19T07:13:15.406Z,9.30
2017-10-19T07:15:43.012Z,10.00
2017-10-19T07:18:10.630Z,9.93
2017-10-19T07:20:38.239Z,10.00
2017-10-19T07:23:06.094Z,9.90
2017-10-19T07:25:33.660Z,9.57
2017-10-19T07:28:02.611Z,8.60
2017-10-19T07:30:30.218Z,8.83
2017-10-19T07:32:57.900Z,9.23
2017-10-19T07:35:25.512Z,10.00
2017-10-19T07:37:53.227Z,8.77
2017-10-19T07:40:20.841Z,7.90
2017-10-19T07:42:48.424Z,7.90
2017-10-19T07:45:16.077Z,8.93
2017-10-19T07:47:43.643Z,8.53
2017-10-19T07:50:11.228Z,7.80
2017-10-19T07:52:38.792Z,9.10
2017-10-19T07:55:06.396Z,8.57
2017-10-19T07:57:33.960Z,8.33
2017-10-19T08:00:01.572Z,9.20
2017-10-19T08:02:29.142Z,8.43
2017-10-19T08:04:56.711Z,9.13
2017-10-19T08:07:24.288Z,9.03
2017-10-19T08:09:52.201Z,10.77
2017-10-19T08:12:19.766Z,11.37
2017-10-19T08:14:47.851Z,10.83
2017-10-19T08:17:15.448Z,9.70
2017-10-19T08:19:43.021Z,9.60
2017-10-19T08:22:10.619Z,10.50
2017-10-19T08:24:38.217Z,9.87
2017-10-19T08:27:05.832Z,11.10
2017-10-19T08:29:33.391Z,10.37
2017-10-19T08:32:01.131Z,11.70
2017-10-19T08:34:28.715Z,11.23
2017-10-19T08:36:56.318Z,11.70
2017-10-19T08:39:23.910Z,11.70
2017-10-19T08:41:51.476Z,12.30
2017-10-19T08:44:19.105Z,11.93
2017-10-19T08:46:46.674Z,11.37
2017-10-19T08:49:14.630Z,12.47
2017-10-19T08:51:42.202Z,12.20
2017-10-19T08:54:09.828Z,12.57
2017-10-19T08:56:37.422Z,13.33
2017-10-19T08:59:05.000Z,13.33
2017-10-19T09:01:32.592Z,14.23
2017-10-19T09:04:00.164Z,14.40
2017-10-19T09:06:27.776Z,14.40
2017-10-19T09:08:55.350Z,13.47
2017-10-19T09:11:22.985Z,13.27
2017-10-19T09:13:50.564Z,13.70
2017-10-19T09:16:18.165Z,12.50
2017-10-19T09:18:45.745Z,12.90
2017-10-19T09:21:13.347Z,12.43
2017-10-19T09:23:40.951Z,11.90
2017-10-19T09:26:08.516Z,13.40
2017-10-19T09:28:36.128Z,12.70
2017-10-19T09:31:03.723Z,14.17
2017-10-19T09:33:31.342Z,12.10
2017-10-19T09:35:58.948Z,13.33
2017-10-19T09:38:26.510Z,14.07
2017-10-19T09:40:54.129Z,12.70
2017-10-19T09:43:21.704Z,13.80
2017-10-19T09:45:49.299Z,13.53
2017-10-19T09:48:16.891Z,12.57
2017-10-19T09:50:44.514Z,13.47
2017-10-19T09:53:12.516Z,13.17
2017-10-19T09:55:40.108Z,14.07
2017-10-19T09:58:07.749Z,14.43
2017-10-19T10:00:35.532Z,15.07
2017-10-19T10:03:03.132Z,14.30
2017-10-19T10:05:30.922Z,15.23
2017-10-19T10:07:58.509Z,13.20
2017-10-19T10:10:26.141Z,14.23
2017-10-19T10:12:53.734Z,14.60
2017-10-19T10:15:21.324Z,13.77
2017-10-19T10:17:48.922Z,15.10
2017-10-19T10:20:16.493Z,12.50
2017-10-19T10:22:44.158Z,12.47
2017-10-19T10:25:11.761Z,12.17
2017-10-19T10:27:39.368Z,12.37
2017-10-19T10:30:06.973Z,13.23
2017-10-19T10:32:34.538Z,11.30
2017-10-19T10:35:02.115Z,12.43
2017-10-19T10:37:29.672Z,11.50
2017-10-19T10:39:57.392Z,12.23
2017-10-19T10:42:24.977Z,11.90
2017-10-19T10:44:52.657Z,12.07
2017-10-19T10:47:20.318Z,12.47
2017-10-19T10:49:47.912Z,12.43
2017-10-19T10:52:15.503Z,12.13
2017-10-19T10:54:43.072Z,12.53
2017-10-19T10:57:10.672Z,11.93
2017-10-19T10:59:38.234Z,11.90
2017-10-19T11:02:05.877Z,12.57
2017-10-19T11:04:33.447Z,11.70
2017-10-19T11:07:01.086Z,12.57
2017-10-19T11:09:28.710Z,12.17
2017-10-19T11:11:56.290Z,11.53
2017-10-19T11:14:23.888Z,12.30
2017-10-19T11:16:51.475Z,12.70
2017-10-19T11:19:19.068Z,13.23
2017-10-19T11:21:46.641Z,11.53
2017-10-19T11:24:14.216Z,13.07
2017-10-19T11:26:41.787Z,12.80
2017-10-19T11:29:09.695Z,13.60
2017-10-19T11:31:37.269Z,13.27
2017-10-19T11:34:04.953Z,13.93
2017-10-19T11:36:32.536Z,13.43
2017-10-19T11:39:00.112Z,14.47
2017-10-19T11:41:27.705Z,14.43
2017-10-19T11:43:55.313Z,13.60
2017-10-19T11:46:22.907Z,14.40
2017-10-19T11:48:50.479Z,13.83
2017-10-19T11:51:18.224Z,13.63
2017-10-19T11:53:45.951Z,14.40
2017-10-19T11:56:13.681Z,14.20
2017-10-19T11:58:41.243Z,14.20
2017-10-19T12:01:08.923Z,14.67
2017-10-19T12:03:36.516Z,15.47
2017-10-19T12:06:04.068Z,14.50
2017-10-19T12:08:31.679Z,16.10
2017-10-19T12:10:59.254Z,14.97
2017-10-19T12:13:27.737Z,14.67
2017-10-19T12:15:55.385Z,13.80
2017-10-19T12:18:23.005Z,15.33
2017-10-19T12:20:50.611Z,15.00
2017-10-19T12:23:18.188Z,13.67
2017-10-19T12:25:45.781Z,15.67
2017-10-19T12:28:13.351Z,14.83
2017-10-19T12:30:40.941Z,15.10
2017-10-19T12:33:08.513Z,15.03
2017-10-19T12:35:36.119Z,13.20
2017-10-19T12:38:03.700Z,14.67
2017-10-19T12:40:31.267Z,14.23
2017-10-19T12:42:58.880Z,14.07
2017-10-19T12:45:26.461Z,14.77
2017-10-19T12:47:54.080Z,14.20
2017-10-19T12:50:21.643Z,13.43
2017-10-19T12:52:49.620Z,13.43
2017-10-19T12:55:17.203Z,13.10
2017-10-19T12:57:44.765Z,13.87
2017-10-19T13:00:12.369Z,13.43
2017-10-19T13:02:39.945Z,13.50
2017-10-19T13:05:07.559Z,12.63
2017-10-19T13:07:35.123Z,13.20
2017-10-19T13:10:02.732Z,12.63
2017-10-19T13:12:30.317Z,12.70
2017-10-19T13:14:57.904Z,12.10
2017-10-19T13:17:25.517Z,12.60
2017-10-19T13:19:53.115Z,12.90
2017-10-19T13:22:20.741Z,12.60
2017-10-19T13:24:48.310Z,13.10
2017-10-19T13:27:15.905Z,13.43
2017-10-19T13:29:43.483Z,12.43
2017-10-19T13:32:11.088Z,12.17
2017-10-19T13:34:38.659Z,13.07
2017-10-19T13:37:06.218Z,13.33
2017-10-19T13:39:33.803Z,14.00
2017-10-19T13:42:01.578Z,14.57
2017-10-19T13:44:29.178Z,13.27
2017-10-19T13:46:56.762Z,12.83
2017-10-19T13:49:24.359Z,13.57
2017-10-19T13:51:51.921Z,13.73
2017-10-19T13:54:19.512Z,13.43
2017-10-19T13:56:47.109Z,13.57
2017-10-19T13:59:14.704Z,14.50
2017-10-19T14:01:42.377Z,12.93
2017-10-19T14:04:09.964Z,13.13
2017-10-19T14:06:37.679Z,14.07
2017-10-19T14:09:05.259Z,13.80
2017-10-19T14:11:32.859Z,13.70
2017-10-19T14:14:00.455Z,16.00
2017-10-19T14:16:28.034Z,14.20
2017-10-19T14:18:55.642Z,13.90
2017-10-19T14:21:23.244Z,14.30
2017-10-19T14:23:50.845Z,14.60
2017-10-19T14:26:18.430Z,14.20
2017-10-19T14:28:46.015Z,14.77
2017-10-19T14:31:13.619Z,14.00
2017-10-19T14:33:41.201Z,15.40
2017-10-19T14:36:08.820Z,13.73
2017-10-19T14:38:36.395Z,14.07
2017-10-19T14:41:03.991Z,16.30
2017-10-19T14:43:31.553Z,14.97
2017-10-19T14:45:59.155Z,14.77
2017-10-19T14:48:26.734Z,14.77
2017-10-19T14:50:54.302Z,14.83
2017-10-19T14:53:21.901Z,15.27
2017-10-19T14:55:49.478Z,14.70
2017-10-19T14:58:17.072Z,15.77
2017-10-19T15:00:44.645Z,14.63
2017-10-19T15:03:12.246Z,15.67
2017-10-19T15:05:39.823Z,14.77
2017-10-19T15:08:07.456Z,15.80
2017-10-19T15:10:35.052Z,16.23
2017-10-19T15:13:02.673Z,16.30
2017-10-19T15:15:30.264Z,17.10
2017-10-19T15:17:57.850Z,17.50
2017-10-19T15:20:25.474Z,17.90
2017-10-19T15:22:53.039Z,18.23
2017-10-19T15:25:20.894Z,20.00
2017-10-19T15:27:48.481Z,20.10
2017-10-19T15:30:16.076Z,20.30
2017-10-19T15:32:43.683Z,20.50
2017-10-19T15:35:11.264Z,21.03
2017-10-19T15:37:38.878Z,21.13
2017-10-19T15:40:06.478Z,21.83
2017-10-19T15:42:34.462Z,21.40
2017-10-19T15:45:02.110Z,21.20
2017-10-19T15:47:29.696Z,23.67
2017-10-19T15:49:57.327Z,25.30
2017-10-19T15:52:24.910Z,29.60
2017-10-19T15:54:52.490Z,54.20
2017-10-19T15:57:20.128Z,48.63
2017-10-19T15:59:47.759Z,43.30
2017-10-19T16:02:15.345Z,26.50
2017-10-19T16:04:42.982Z,23.07
2017-10-19T16:07:10.565Z,24.23
2017-10-19T16:09:38.286Z,23.37
2017-10-19T16:12:05.892Z,22.97
2017-10-19T16:14:33.858Z,23.90
2017-10-19T16:17:01.444Z,23.40
2017-10-19T16:19:29.052Z,24.57
2017-10-19T16:21:56.862Z,25.17
2017-10-19T16:24:24.448Z,25.20
2017-10-19T16:26:52.160Z,24.23
2017-10-19T16:29:19.735Z,25.37
2017-10-19T16:31:47.535Z,25.27
2017-10-19T16:34:15.176Z,27.07
2017-10-19T16:36:42.783Z,28.97
2017-10-19T16:39:10.381Z,29.27
2017-10-19T16:41:37.959Z,31.40
2017-10-19T16:44:05.575Z,34.80
2017-10-19T16:46:33.152Z,29.37
2017-10-19T16:49:00.725Z,30.20
2017-10-19T16:51:28.347Z,31.23
2017-10-19T16:53:55.945Z,30.47
2017-10-19T16:56:23.543Z,29.53
2017-10-19T16:58:51.125Z,30.67
2017-10-19T17:01:18.769Z,30.40
2017-10-19T17:03:46.399Z,32.10
2017-10-19T17:06:14.011Z,32.27
2017-10-19T17:08:41.618Z,36.63
2017-10-19T17:11:09.204Z,33.60
2017-10-19T17:13:36.821Z,31.40
2017-10-19T17:16:04.446Z,31.87
2017-10-19T17:18:32.329Z,31.93
2017-10-19T17:21:00.313Z,32.27
2017-10-19T17:23:28.002Z,32.93
2017-10-19T17:25:55.719Z,33.17
2017-10-19T17:28:23.303Z,33.70
2017-10-19T17:30:50.979Z,32.57
2017-10-19T17:33:18.631Z,33.47
2017-10-19T17:35:46.242Z,34.97
2017-10-19T17:38:13.902Z,34.57
2017-10-19T17:40:41.564Z,33.57
2017-10-19T17:43:09.385Z,33.77
2017-10-19T17:45:37.049Z,35.10
2017-10-19T17:48:04.680Z,36.00
2017-10-19T17:50:32.274Z,36.83
2017-10-19T17:52:59.890Z,36.83
2017-10-19T17:55:27.587Z,36.80
2017-10-19T17:57:55.236Z,37.27
2017-10-19T18:00:23.066Z,36.60
2017-10-19T18:02:50.874Z,37.80
2017-10-19T18:05:18.667Z,38.70
2017-10-19T18:07:46.397Z,40.10
2017-10-19T18:10:14.303Z,37.73
2017-10-19T18:12:42.030Z,39.80
2017-10-19T18:15:09.912Z,38.67
2017-10-19T18:17:37.657Z,37.97
2017-10-19T18:20:05.373Z,38.40
2017-10-19T18:22:33.424Z,38.00
2017-10-19T18:25:01.297Z,39.50
2017-10-19T18:27:29.161Z,40.93
2017-10-19T18:29:56.939Z,39.60
2017-10-19T18:32:24.690Z,43.17
2017-10-19T18:34:52.566Z,44.40
2017-10-19T18:37:20.420Z,46.60
2017-10-19T18:39:51.373Z,48.37
2017-10-19T18:42:20.044Z,50.87
2017-10-19T18:44:48.206Z,49.00
2017-10-19T18:47:16.480Z,50.00
2017-10-19T18:49:44.470Z,48.43
2017-10-19T18:52:12.330Z,47.80
2017-10-19T18:54:40.305Z,54.40
2017-10-19T18:57:08.109Z,45.63
2017-10-19T18:59:36.201Z,46.37
2017-10-19T19:02:04.216Z,47.97
2017-10-19T19:04:31.986Z,44.73
2017-10-19T19:06:59.921Z,44.37
2017-10-19T19:09:27.915Z,44.67
2017-10-19T19:11:56.806Z,43.43
2017-10-19T19:14:25.688Z,43.73
2017-10-19T19:16:53.669Z,43.73
2017-10-19T19:19:21.679Z,43.60
2017-10-19T19:21:50.224Z,43.93
2017-10-19T19:24:18.160Z,42.50
2017-10-19T19:26:46.162Z,43.30
2017-10-19T19:29:14.196Z,45.00
2017-10-19T19:31:44.082Z,45.17
2017-10-19T19:34:13.661Z,46.07
2017-10-19T19:36:41.730Z,44.53
2017-10-19T19:39:09.704Z,46.50
2017-10-19T19:41:38.373Z,45.37
2017-10-19T19:44:06.357Z,45.30
2017-10-19T19:46:34.311Z,43.37
2017-10-19T19:49:02.296Z,44.43
2017-10-19T19:51:30.182Z,44.47
2017-10-19T19:53:58.129Z,45.77
2017-10-19T19:56:26.918Z,44.57
2017-10-19T19:58:54.885Z,48.73
2017-10-19T20:01:22.854Z,45.93
2017-10-19T20:03:50.847Z,43.70
2017-10-19T20:06:18.691Z,42.97
2017-10-19T20:08:46.669Z,43.87
2017-10-19T20:11:14.794Z,44.77
2017-10-19T20:13:42.806Z,46.90
2017-10-19T20:16:10.780Z,46.53
2017-10-19T20:18:38.633Z,47.10
2017-10-19T20:21:06.435Z,44.50
2017-10-19T20:23:34.476Z,45.23
2017-10-19T20:26:02.742Z,47.30
2017-10-19T20:28:30.572Z,46.73
2017-10-19T20:30:58.270Z,46.27
2017-10-19T20:33:26.776Z,50.30
2017-10-19T20:35:55.620Z,47.73
2017-10-19T20:38:23.367Z,43.10
2017-10-19T20:40:51.123Z,45.70
2017-10-19T20:43:18.798Z,45.37
2017-10-19T20:45:46.492Z,45.40
2017-10-19T20:48:14.154Z,46.70
2017-10-19T20:50:41.843Z,45.50
2017-10-19T20:53:09.464Z,47.67
2017-10-19T20:55:37.409Z,43.83
2017-10-19T20:58:05.040Z,46.60
2017-10-19T21:00:32.653Z,43.03
2017-10-19T21:03:00.386Z,43.27
2017-10-19T21:05:28.069Z,43.07
2017-10-19T21:07:55.701Z,40.97
2017-10-19T21:10:23.271Z,35.43
2017-10-19T21:12:50.902Z,33.07
2017-10-19T21:15:18.490Z,34.23
2017-10-19T21:17:46.079Z,33.67
2017-10-19T21:20:13.714Z,34.80
2017-10-19T21:22:41.289Z,35.77
2017-10-19T21:25:08.913Z,37.60
2017-10-19T21:27:36.686Z,35.63
2017-10-19T21:30:04.332Z,37.50
2017-10-19T21:32:31.911Z,36.37
2017-10-19T21:34:59.855Z,35.87
2017-10-19T21:37:27.450Z,36.00
2017-10-19T21:39:55.064Z,38.17
2017-10-19T21:42:22.666Z,37.60
2017-10-19T21:44:50.271Z,34.77
2017-10-19T21:47:17.884Z,33.17
2017-10-19T21:49:45.452Z,34.57
2017-10-19T21:52:13.084Z,35.53
2017-10-19T21:54:40.684Z,34.83
2017-10-19T21:57:08.560Z,33.43
2017-10-19T21:59:36.170Z,31.73
2017-10-19T22:02:03.769Z,32.57
2017-10-19T22:04:31.381Z,30.90
2017-10-19T22:06:58.970Z,31.30
2017-10-19T22:09:26.566Z,29.80
2017-10-19T22:11:54.148Z,27.90
2017-10-19T22:14:21.745Z,27.40
2017-10-19T22:16:49.346Z,31.20
2017-10-19T22:19:16.998Z,27.87
2017-10-19T22:21:46.221Z,27.90
2017-10-19T22:24:14.127Z,28.87
2017-10-19T22:26:42.269Z,31.60
2017-10-19T22:29:09.920Z,30.20
2017-10-19T22:31:37.516Z,27.13
2017-10-19T22:34:05.104Z,27.93
2017-10-19T22:36:32.695Z,31.33
2017-10-19T22:39:01.686Z,27.60
2017-10-19T22:41:29.281Z,25.63
2017-10-19T22:43:56.896Z,27.63
2017-10-19T22:46:24.754Z,24.10
2017-10-19T22:48:52.817Z,25.53
2017-10-19T22:51:20.761Z,25.53
2017-10-19T22:53:48.350Z,25.23
2017-10-19T22:56:15.948Z,24.30
2017-10-19T22:58:44.669Z,23.57
2017-10-19T23:01:12.240Z,23.60
2017-10-19T23:03:39.839Z,23.93
2017-10-19T23:06:07.410Z,22.90
2017-10-19T23:08:35.002Z,22.30
2017-10-19T23:11:02.600Z,22.53
2017-10-19T23:13:30.223Z,23.90
2017-10-19T23:15:57.816Z,23.97
2017-10-19T23:18:25.422Z,22.70
2017-10-19T23:20:53.431Z,22.90
2017-10-19T23:23:21.001Z,23.83
2017-10-19T23:25:48.603Z,22.93
2017-10-19T23:28:16.193Z,24.40
2017-10-19T23:30:43.798Z,22.93
2017-10-19T23:33:11.390Z,24.60
2017-10-19T23:35:39.413Z,22.93
2017-10-19T23:40:40.824Z,24.70
2017-10-19T23:43:08.401Z,22.60
2017-10-19T23:45:36.294Z,24.70
2017-10-19T23:48:03.885Z,23.47
2017-10-19T23:50:31.480Z,22.07
2017-10-19T23:52:59.154Z,22.57
2017-10-19T23:55:26.757Z,22.87
2017-10-19T23:57:54.363Z,23.40
